createdAt,value
2022-07-25T00:02:13.003Z,4.43
2022-07-25T00:04:39.845Z,4.25
2022-07-25T00:07:05.872Z,4.03
2022-07-25T00:09:31.713Z,4.47
2022-07-25T00:11:57.634Z,4.57
2022-07-25T00:14:23.488Z,4.38
2022-07-25T00:16:49.263Z,4.00
2022-07-25T00:19:15.146Z,4.38
2022-07-25T00:21:41.097Z,4.15
2022-07-25T00:24:07.604Z,3.70
2022-07-25T00:26:39.490Z,4.65
2022-07-25T00:29:05.966Z,4.63
2022-07-25T00:31:31.824Z,4.63
2022-07-25T00:33:57.630Z,4.18
2022-07-25T00:36:23.516Z,4.53
2022-07-25T00:38:49.334Z,4.25
2022-07-25T00:41:15.429Z,4.32
2022-07-25T00:43:45.204Z,4.30
2022-07-25T00:46:19.044Z,4.20
2022-07-25T00:48:46.896Z,4.50
2022-07-25T00:51:12.982Z,4.32
2022-07-25T00:53:39.154Z,4.60
2022-07-25T00:56:06.045Z,4.20
2022-07-25T00:58:32.802Z,3.72
2022-07-25T01:00:59.977Z,4.05
2022-07-25T01:03:26.163Z,4.22
2022-07-25T01:05:53.932Z,4.95
2022-07-25T01:08:21.004Z,3.78
2022-07-25T01:10:48.437Z,4.20
2022-07-25T01:13:14.689Z,4.03
2022-07-25T01:15:42.110Z,4.55
2022-07-25T01:18:08.089Z,4.40
2022-07-25T01:20:34.255Z,4.65
2022-07-25T01:23:00.496Z,4.32
2022-07-25T01:25:27.042Z,4.28
2022-07-25T01:27:55.838Z,4.00
2022-07-25T01:30:23.785Z,4.40
2022-07-25T01:32:50.263Z,4.60
2022-07-25T01:35:16.205Z,4.38
2022-07-25T01:37:42.174Z,4.10
2022-07-25T01:40:13.312Z,4.57
2022-07-25T01:42:39.187Z,4.28
2022-07-25T01:45:05.723Z,5.00
2022-07-25T01:47:31.662Z,4.10
2022-07-25T01:49:57.502Z,4.50
2022-07-25T01:52:23.361Z,4.25
2022-07-25T01:54:49.188Z,4.40
2022-07-25T01:57:15.674Z,4.43
2022-07-25T01:59:42.710Z,4.18
2022-07-25T02:02:09.191Z,4.18
2022-07-25T02:04:35.689Z,4.13
2022-07-25T02:07:01.890Z,3.83
2022-07-25T02:09:27.768Z,4.30
2022-07-25T02:11:53.949Z,4.03
2022-07-25T02:14:19.801Z,4.38
2022-07-25T02:16:45.731Z,3.88
2022-07-25T02:19:11.544Z,4.03
2022-07-25T02:21:37.455Z,3.85
2022-07-25T02:24:03.735Z,4.05
2022-07-25T02:26:29.865Z,4.10
2022-07-25T02:28:55.685Z,4.55
2022-07-25T02:31:21.690Z,3.75
2022-07-25T02:33:47.724Z,4.07
2022-07-25T02:36:13.615Z,4.25
2022-07-25T02:38:39.441Z,4.72
2022-07-25T02:41:05.559Z,4.05
2022-07-25T02:43:31.393Z,4.07
2022-07-25T02:45:57.325Z,4.38
2022-07-25T02:48:23.176Z,3.85
2022-07-25T02:50:49.069Z,4.38
2022-07-25T02:53:14.878Z,3.97
2022-07-25T02:55:40.710Z,4.45
2022-07-25T02:58:06.546Z,4.18
2022-07-25T03:00:32.671Z,3.88
2022-07-25T03:02:58.522Z,4.00
2022-07-25T03:05:24.419Z,3.60
2022-07-25T03:07:50.847Z,4.28
2022-07-25T03:10:17.016Z,4.18
2022-07-25T03:12:43.386Z,4.03
2022-07-25T03:15:10.549Z,3.92
2022-07-25T03:17:37.386Z,3.90
2022-07-25T03:20:05.197Z,3.70
2022-07-25T03:22:31.041Z,4.15
2022-07-25T03:24:56.903Z,3.83
2022-07-25T03:27:22.746Z,4.07
2022-07-25T03:29:48.649Z,4.40
2022-07-25T03:32:14.517Z,4.10
2022-07-25T03:34:40.479Z,4.20
2022-07-25T03:37:06.281Z,3.97
2022-07-25T03:39:32.149Z,4.30
2022-07-25T03:41:58.150Z,4.38
2022-07-25T03:44:24.645Z,4.25
2022-07-25T03:46:51.364Z,3.80
2022-07-25T03:49:18.531Z,3.95
2022-07-25T03:51:44.474Z,3.88
2022-07-25T03:54:12.996Z,4.15
2022-07-25T03:56:43.886Z,4.07
2022-07-25T03:59:11.891Z,3.90
2022-07-25T04:01:38.557Z,4.47
2022-07-25T04:04:04.797Z,3.90
2022-07-25T04:06:30.944Z,4.53
2022-07-25T04:08:57.488Z,4.03
2022-07-25T04:11:23.645Z,6.05
2022-07-25T04:13:50.934Z,4.50
2022-07-25T04:16:22.603Z,4.30
2022-07-25T04:18:52.154Z,4.30
2022-07-25T04:21:18.125Z,3.83
2022-07-25T04:23:44.030Z,4.05
2022-07-25T04:26:09.855Z,3.97
2022-07-25T04:28:35.696Z,3.92
2022-07-25T04:31:01.613Z,3.83
2022-07-25T04:33:27.524Z,3.70
2022-07-25T04:35:53.407Z,4.50
2022-07-25T04:38:19.339Z,3.97
2022-07-25T04:40:46.299Z,4.28
2022-07-25T04:43:12.397Z,4.00
2022-07-25T04:45:38.325Z,3.67
2022-07-25T04:48:04.828Z,4.18
2022-07-25T04:50:30.799Z,4.78
2022-07-25T04:52:56.669Z,4.20
2022-07-25T04:55:22.733Z,4.00
2022-07-25T04:57:48.613Z,4.03
2022-07-25T05:00:15.232Z,3.80
2022-07-25T05:02:42.409Z,3.85
2022-07-25T05:05:08.906Z,4.00
2022-07-25T05:07:47.789Z,3.70
2022-07-25T05:10:13.658Z,3.80
2022-07-25T05:12:39.453Z,3.90
2022-07-25T05:15:05.863Z,3.80
2022-07-25T05:17:31.715Z,3.97
2022-07-25T05:19:58.049Z,4.40
2022-07-25T05:22:28.534Z,4.57
2022-07-25T05:24:55.609Z,5.00
2022-07-25T05:27:21.477Z,3.55
2022-07-25T05:29:47.302Z,4.13
2022-07-25T05:32:13.136Z,4.50
2022-07-25T05:34:39.182Z,4.47
2022-07-25T05:37:05.027Z,4.82
2022-07-25T05:39:31.075Z,4.40
2022-07-25T05:41:56.941Z,4.47
2022-07-25T05:44:22.785Z,4.78
2022-07-25T05:46:48.686Z,4.03
2022-07-25T05:49:15.315Z,4.40
2022-07-25T05:51:41.160Z,4.07
2022-07-25T05:54:07.486Z,4.43
2022-07-25T05:56:33.701Z,4.15
2022-07-25T05:58:59.534Z,4.18
2022-07-25T06:01:25.443Z,4.70
2022-07-25T06:03:51.369Z,4.88
2022-07-25T06:06:17.211Z,3.70
2022-07-25T06:08:43.437Z,4.53
2022-07-25T06:11:11.257Z,4.32
2022-07-25T06:13:37.102Z,4.00
2022-07-25T06:16:03.402Z,3.90
2022-07-25T06:18:29.642Z,4.25
2022-07-25T06:20:55.521Z,4.18
2022-07-25T06:23:21.464Z,4.10
2022-07-25T06:25:50.261Z,4.80
2022-07-25T06:28:18.175Z,5.00
2022-07-25T06:30:44.887Z,4.28
2022-07-25T06:33:11.666Z,4.47
2022-07-25T06:35:37.590Z,4.20
2022-07-25T06:38:03.769Z,4.82
2022-07-25T06:40:29.899Z,4.90
2022-07-25T06:42:56.084Z,4.38
2022-07-25T06:45:22.313Z,4.50
2022-07-25T06:47:48.574Z,3.92
2022-07-25T06:50:21.179Z,3.85
2022-07-25T06:52:47.642Z,4.35
2022-07-25T06:55:14.643Z,4.35
2022-07-25T06:57:41.925Z,4.40
2022-07-25T07:00:10.959Z,4.68
2022-07-25T07:02:51.873Z,4.28
2022-07-25T07:05:18.143Z,4.40
2022-07-25T07:07:47.592Z,4.28
2022-07-25T07:10:13.867Z,4.40
2022-07-25T07:12:39.816Z,4.88
2022-07-25T07:15:05.982Z,5.43
2022-07-25T07:17:31.911Z,4.05
2022-07-25T07:19:57.740Z,4.65
2022-07-25T07:22:24.153Z,4.15
2022-07-25T07:24:50.036Z,4.72
2022-07-25T07:27:16.193Z,4.55
2022-07-25T07:29:45.113Z,4.32
2022-07-25T07:32:11.127Z,4.05
2022-07-25T07:34:37.328Z,4.80
2022-07-25T07:37:03.222Z,4.32
2022-07-25T07:39:29.034Z,4.78
2022-07-25T07:41:54.858Z,4.32
2022-07-25T07:44:20.737Z,4.68
2022-07-25T07:46:46.750Z,4.40
2022-07-25T07:49:12.848Z,4.30
2022-07-25T07:51:38.732Z,4.70
2022-07-25T07:54:23.478Z,4.38
2022-07-25T07:56:49.325Z,4.63
2022-07-25T07:59:15.242Z,4.90
2022-07-25T08:01:41.135Z,4.82
2022-07-25T08:04:07.208Z,3.97
2022-07-25T08:06:33.288Z,4.47
2022-07-25T08:08:59.118Z,5.03
2022-07-25T08:11:25.769Z,5.30
2022-07-25T08:13:51.895Z,4.45
2022-07-25T08:16:18.109Z,4.93
2022-07-25T08:18:44.015Z,4.07
2022-07-25T08:21:10.767Z,5.03
2022-07-25T08:23:38.118Z,4.70
2022-07-25T08:26:04.949Z,4.82
2022-07-25T08:28:31.330Z,4.53
2022-07-25T08:30:58.310Z,4.30
2022-07-25T08:33:25.158Z,4.28
2022-07-25T08:35:53.801Z,4.25
2022-07-25T08:38:21.258Z,4.72
2022-07-25T08:40:47.644Z,4.28
2022-07-25T08:43:15.144Z,4.22
2022-07-25T08:45:52.803Z,4.47
2022-07-25T08:48:24.750Z,4.72
2022-07-25T08:50:52.020Z,4.47
2022-07-25T08:53:35.727Z,5.53
2022-07-25T08:56:20.461Z,4.40
2022-07-25T09:01:13.673Z,4.25
2022-07-25T09:03:41.496Z,3.95
2022-07-25T09:06:19.342Z,4.40
2022-07-25T09:08:57.106Z,4.32
2022-07-25T09:11:31.815Z,4.22
2022-07-25T09:14:10.219Z,3.80
2022-07-25T09:16:40.042Z,4.93
2022-07-25T09:19:18.507Z,4.25
2022-07-25T09:21:56.501Z,4.15
2022-07-25T09:24:23.015Z,4.28
2022-07-25T09:26:51.164Z,4.55
2022-07-25T09:29:29.288Z,4.88
2022-07-25T09:31:56.953Z,4.43
2022-07-25T09:34:41.087Z,4.32
2022-07-25T09:37:09.531Z,4.28
2022-07-25T09:39:46.500Z,4.43
2022-07-25T09:42:25.846Z,4.95
2022-07-25T09:45:13.474Z,4.45
2022-07-25T09:47:57.864Z,4.53
2022-07-25T09:50:26.231Z,4.90
2022-07-25T09:52:54.220Z,4.97
2022-07-25T09:55:21.366Z,4.70
2022-07-25T09:57:54.152Z,4.80
2022-07-25T10:00:23.481Z,5.20
2022-07-25T10:02:55.718Z,5.07
2022-07-25T10:05:21.790Z,5.22
2022-07-25T10:07:51.644Z,5.28
2022-07-25T10:10:25.877Z,5.15
2022-07-25T10:13:09.496Z,5.03
2022-07-25T10:15:49.860Z,4.63
2022-07-25T10:18:18.619Z,4.90
2022-07-25T10:20:47.010Z,4.50
2022-07-25T10:23:20.732Z,4.70
2022-07-25T10:25:49.113Z,4.88
2022-07-25T10:28:19.244Z,5.35
2022-07-25T10:30:45.829Z,4.93
2022-07-25T10:33:15.156Z,5.25
2022-07-25T10:35:41.725Z,4.63
2022-07-25T10:38:08.216Z,5.18
2022-07-25T10:40:39.754Z,5.13
2022-07-25T10:43:09.072Z,4.75
2022-07-25T10:45:42.547Z,4.80
2022-07-25T10:48:22.933Z,4.97
2022-07-25T10:50:56.795Z,5.35
2022-07-25T10:53:45.777Z,5.28
2022-07-25T10:56:14.436Z,5.05
2022-07-25T10:59:00.908Z,5.45
2022-07-25T11:01:30.742Z,5.18
2022-07-25T11:04:14.900Z,4.90
2022-07-25T11:06:42.197Z,5.43
2022-07-25T11:09:25.037Z,7.53
2022-07-25T11:11:54.851Z,4.65
2022-07-25T11:14:21.912Z,4.93
2022-07-25T11:16:50.558Z,5.03
2022-07-25T11:19:25.872Z,5.53
2022-07-25T11:21:58.726Z,5.05
2022-07-25T11:24:42.499Z,5.15
2022-07-25T11:27:12.765Z,5.47
2022-07-25T11:29:39.329Z,4.85
2022-07-25T11:32:11.026Z,5.40
2022-07-25T11:34:43.430Z,5.68
2022-07-25T11:37:11.093Z,5.55
2022-07-25T11:39:39.329Z,5.40
2022-07-25T11:42:11.878Z,4.47
2022-07-25T11:44:44.135Z,4.68
2022-07-25T11:47:28.961Z,5.20
2022-07-25T11:49:59.766Z,4.90
2022-07-25T11:52:34.698Z,5.05
2022-07-25T11:55:07.804Z,5.18
2022-07-25T11:57:36.047Z,5.70
2022-07-25T12:00:07.963Z,4.97
2022-07-25T12:02:36.893Z,5.50
2022-07-25T12:05:05.607Z,5.13
2022-07-25T12:07:45.112Z,5.28
2022-07-25T12:10:15.028Z,4.80
2022-07-25T12:12:42.892Z,5.20
2022-07-25T12:15:11.226Z,4.45
2022-07-25T12:17:37.611Z,5.22
2022-07-25T12:20:07.881Z,4.60
2022-07-25T12:22:36.716Z,5.25
2022-07-25T12:25:03.139Z,5.07
2022-07-25T12:27:29.062Z,4.75
2022-07-25T12:29:54.888Z,4.75
2022-07-25T12:32:20.711Z,4.85
2022-07-25T12:34:46.700Z,4.35
2022-07-25T12:37:12.661Z,4.68
2022-07-25T12:39:39.002Z,5.32
2022-07-25T12:42:04.945Z,5.32
2022-07-25T12:44:30.782Z,4.70
2022-07-25T12:46:56.613Z,4.85
2022-07-25T12:49:22.564Z,5.78
2022-07-25T12:51:48.692Z,5.47
2022-07-25T12:54:20.055Z,5.28
2022-07-25T12:56:48.032Z,5.78
2022-07-25T12:59:13.992Z,4.82
2022-07-25T13:01:39.896Z,5.90
2022-07-25T13:04:08.431Z,6.03
2022-07-25T13:06:38.723Z,6.30
2022-07-25T13:09:05.920Z,6.40
2022-07-25T13:11:31.944Z,6.65
2022-07-25T13:13:57.902Z,5.68
2022-07-25T13:16:23.812Z,7.57
2022-07-25T13:18:49.745Z,7.35
2022-07-25T13:21:15.722Z,6.38
2022-07-25T13:23:41.657Z,7.82
2022-07-25T13:26:08.035Z,6.05
2022-07-25T13:28:33.932Z,6.82
2022-07-25T13:31:01.146Z,6.43
2022-07-25T13:33:27.752Z,5.13
2022-07-25T13:35:53.835Z,5.28
2022-07-25T13:38:19.816Z,5.43
2022-07-25T13:40:45.676Z,5.03
2022-07-25T13:43:13.347Z,5.15
2022-07-25T13:45:40.551Z,5.32
2022-07-25T13:48:28.474Z,4.55
2022-07-25T13:50:52.462Z,4.40
2022-07-25T13:53:18.597Z,4.65
2022-07-25T13:55:44.454Z,4.72
2022-07-25T13:58:10.284Z,5.15
2022-07-25T14:00:36.095Z,4.20
2022-07-25T14:03:01.955Z,4.65
2022-07-25T14:05:27.833Z,4.40
2022-07-25T14:07:53.695Z,4.28
2022-07-25T14:10:19.502Z,4.63
2022-07-25T14:12:45.382Z,4.15
2022-07-25T14:15:11.904Z,4.15
2022-07-25T14:17:38.320Z,4.20
2022-07-25T14:20:05.904Z,4.38
2022-07-25T14:22:31.755Z,3.70
2022-07-25T14:24:57.651Z,3.60
2022-07-25T14:27:23.795Z,3.67
2022-07-25T14:29:49.922Z,3.90
2022-07-25T14:32:15.802Z,3.75
2022-07-25T14:34:41.682Z,3.42
2022-07-25T14:37:07.981Z,3.95
2022-07-25T14:39:34.224Z,3.47
2022-07-25T14:42:00.192Z,2.90
2022-07-25T14:44:27.912Z,2.70
2022-07-25T14:46:55.911Z,3.20
2022-07-25T14:49:22.833Z,3.17
2022-07-25T14:51:49.148Z,3.58
2022-07-25T14:54:18.241Z,2.55
2022-07-25T14:56:44.356Z,2.53
2022-07-25T14:59:11.049Z,3.55
2022-07-25T15:01:38.416Z,3.17
2022-07-25T15:04:04.711Z,3.05
2022-07-25T15:06:31.294Z,2.80
2022-07-25T15:08:59.684Z,2.38
2022-07-25T15:11:25.570Z,2.53
2022-07-25T15:13:52.280Z,2.00
2022-07-25T15:16:18.300Z,2.13
2022-07-25T15:19:13.234Z,1.70
2022-07-25T15:21:30.433Z,1.65
2022-07-25T15:23:56.783Z,1.80
2022-07-25T15:26:23.214Z,1.63
2022-07-25T15:28:49.135Z,1.48
2022-07-25T15:31:15.643Z,1.77
2022-07-25T15:33:41.463Z,1.77
2022-07-25T15:36:09.039Z,1.77
2022-07-25T15:38:34.992Z,1.63
2022-07-25T15:41:00.814Z,2.28
2022-07-25T15:43:26.702Z,1.80
2022-07-25T15:45:52.874Z,1.60
2022-07-25T15:48:19.654Z,1.30
2022-07-25T15:50:47.713Z,1.38
2022-07-25T15:53:14.018Z,1.40
2022-07-25T15:55:40.863Z,1.73
2022-07-25T15:58:08.806Z,1.67
2022-07-25T16:00:35.199Z,2.30
2022-07-25T16:03:01.529Z,1.45
2022-07-25T16:05:28.827Z,1.45
2022-07-25T16:07:54.729Z,1.75
2022-07-25T16:10:20.781Z,1.58
2022-07-25T16:12:46.673Z,1.73
2022-07-25T16:15:12.623Z,1.90
2022-07-25T16:17:39.129Z,1.73
2022-07-25T16:20:06.509Z,1.85
2022-07-25T16:22:33.658Z,1.75
2022-07-25T16:25:02.302Z,3.03
2022-07-25T16:27:29.151Z,2.25
2022-07-25T16:29:55.649Z,2.20
2022-07-25T16:32:21.557Z,2.13
2022-07-25T16:34:47.422Z,1.90
2022-07-25T16:37:13.288Z,2.45
2022-07-25T16:39:39.465Z,1.73
2022-07-25T16:42:05.484Z,2.17
2022-07-25T16:44:31.312Z,2.70
2022-07-25T16:46:57.412Z,2.38
2022-07-25T16:49:23.560Z,2.50
2022-07-25T16:51:51.336Z,1.88
2022-07-25T16:54:17.152Z,2.17
2022-07-25T16:56:43.170Z,2.05
2022-07-25T16:59:10.747Z,1.63
2022-07-25T17:01:37.228Z,1.75
2022-07-25T17:04:03.751Z,1.60
2022-07-25T17:06:30.222Z,1.98
2022-07-25T17:08:56.137Z,1.80
2022-07-25T17:11:22.061Z,2.20
2022-07-25T17:13:48.038Z,1.85
2022-07-25T17:16:13.987Z,1.58
2022-07-25T17:18:39.862Z,2.03
2022-07-25T17:21:06.682Z,1.70
2022-07-25T17:23:32.817Z,1.80
2022-07-25T17:25:58.845Z,1.40
2022-07-25T17:28:24.928Z,1.35
2022-07-25T17:30:50.984Z,1.85
2022-07-25T17:33:17.151Z,1.80
2022-07-25T17:35:43.196Z,1.75
2022-07-25T17:38:11.222Z,1.73
2022-07-25T17:40:40.265Z,1.70
2022-07-25T17:43:06.157Z,1.58
2022-07-25T17:45:32.136Z,1.60
2022-07-25T17:47:57.980Z,1.80
2022-07-25T17:50:29.245Z,1.23
2022-07-25T17:52:59.337Z,1.42
2022-07-25T17:55:26.294Z,1.52
2022-07-25T17:57:54.899Z,1.50
2022-07-25T18:00:22.389Z,1.55
2022-07-25T18:02:49.522Z,1.40
2022-07-25T18:05:16.273Z,1.60
2022-07-25T18:07:48.712Z,1.80
2022-07-25T18:10:16.977Z,2.17
2022-07-25T18:12:43.403Z,1.15
2022-07-25T18:15:11.523Z,1.30
2022-07-25T18:17:40.258Z,1.63
2022-07-25T18:20:06.731Z,1.75
2022-07-25T18:22:33.032Z,1.80
2022-07-25T18:24:58.848Z,1.75
2022-07-25T18:27:25.080Z,1.75
2022-07-25T18:29:51.008Z,1.60
2022-07-25T18:32:16.845Z,1.45
2022-07-25T18:34:42.715Z,1.50
2022-07-25T18:37:09.265Z,1.83
2022-07-25T18:39:35.272Z,1.45
2022-07-25T18:42:01.168Z,1.65
2022-07-25T18:44:26.986Z,1.98
2022-07-25T18:46:52.907Z,1.30
2022-07-25T18:49:18.935Z,2.10
2022-07-25T18:51:44.824Z,2.03
2022-07-25T18:54:11.074Z,2.13
2022-07-25T18:56:37.132Z,1.70
2022-07-25T18:59:03.099Z,1.92
2022-07-25T19:01:29.714Z,1.67
2022-07-25T19:03:55.959Z,1.80
2022-07-25T19:06:21.989Z,1.63
2022-07-25T19:08:47.899Z,1.52
2022-07-25T19:11:13.950Z,1.70
2022-07-25T19:13:49.436Z,1.95
2022-07-25T19:16:17.207Z,2.50
2022-07-25T19:18:43.212Z,2.42
2022-07-25T19:21:09.293Z,1.63
2022-07-25T19:23:35.201Z,1.50
2022-07-25T19:26:02.122Z,1.90
2022-07-25T19:28:28.354Z,1.60
2022-07-25T19:30:55.310Z,1.10
2022-07-25T19:33:21.382Z,2.08
2022-07-25T19:35:47.542Z,1.63
2022-07-25T19:38:13.507Z,1.58
2022-07-25T19:40:39.600Z,1.92
2022-07-25T19:43:05.616Z,1.50
2022-07-25T19:45:31.913Z,1.90
2022-07-25T19:48:00.247Z,1.63
2022-07-25T19:50:26.825Z,1.55
2022-07-25T19:52:52.921Z,2.38
2022-07-25T19:55:18.955Z,1.58
2022-07-25T19:57:44.904Z,1.65
2022-07-25T20:00:11.297Z,1.10
2022-07-25T20:02:37.169Z,1.60
2022-07-25T20:05:03.556Z,1.50
2022-07-25T20:07:29.496Z,1.35
2022-07-25T20:09:55.335Z,1.48
2022-07-25T20:12:21.398Z,1.20
2022-07-25T20:14:47.391Z,1.27
2022-07-25T20:17:14.392Z,1.52
2022-07-25T20:19:40.528Z,1.27
2022-07-25T20:22:06.796Z,1.10
2022-07-25T20:24:33.262Z,1.42
2022-07-25T20:27:00.181Z,1.00
2022-07-25T20:29:26.082Z,1.35
2022-07-25T20:31:53.283Z,1.27
2022-07-25T20:34:19.817Z,0.88
2022-07-25T20:36:45.805Z,1.50
2022-07-25T20:39:12.558Z,1.10
2022-07-25T20:41:39.479Z,1.02
2022-07-25T20:44:05.597Z,1.25
2022-07-25T20:46:38.354Z,0.88
2022-07-25T20:49:07.803Z,0.77
2022-07-25T20:51:41.357Z,1.00
2022-07-25T20:54:07.523Z,1.48
2022-07-25T20:56:33.392Z,1.15
2022-07-25T20:58:59.281Z,1.15
2022-07-25T21:01:25.620Z,0.95
2022-07-25T21:03:51.696Z,0.88
2022-07-25T21:06:17.786Z,0.98
2022-07-25T21:08:43.652Z,1.20
2022-07-25T21:11:09.705Z,0.85
2022-07-25T21:13:36.377Z,1.30
2022-07-25T21:16:02.557Z,0.98
2022-07-25T21:18:28.602Z,0.77
2022-07-25T21:20:54.706Z,0.70
2022-07-25T21:23:20.821Z,1.10
2022-07-25T21:25:47.752Z,0.85
2022-07-25T21:28:13.797Z,1.13
2022-07-25T21:30:42.040Z,0.90
2022-07-25T21:33:14.200Z,0.57
2022-07-25T21:35:49.234Z,0.68
2022-07-25T21:38:27.311Z,1.20
2022-07-25T21:40:57.623Z,0.73
2022-07-25T21:43:23.583Z,0.93
2022-07-25T21:45:49.590Z,1.33
2022-07-25T21:48:15.671Z,0.80
2022-07-25T21:50:47.806Z,1.27
2022-07-25T21:53:15.395Z,0.95
2022-07-25T21:55:41.233Z,1.13
2022-07-25T21:58:07.481Z,0.60
2022-07-25T22:00:34.022Z,1.15
2022-07-25T22:03:01.725Z,0.95
2022-07-25T22:05:27.633Z,0.98
2022-07-25T22:07:53.601Z,0.90
2022-07-25T22:10:21.071Z,0.80
2022-07-25T22:12:47.609Z,0.82
2022-07-25T22:15:14.947Z,1.13
2022-07-25T22:17:48.738Z,1.00
2022-07-25T22:20:15.406Z,0.80
2022-07-25T22:22:41.276Z,0.93
2022-07-25T22:25:07.809Z,0.77
2022-07-25T22:27:33.753Z,0.80
2022-07-25T22:29:59.616Z,0.70
2022-07-25T22:32:25.514Z,0.65
2022-07-25T22:34:51.398Z,0.68
2022-07-25T22:37:17.248Z,0.75
2022-07-25T22:39:43.375Z,0.80
2022-07-25T22:42:09.277Z,0.77
2022-07-25T22:44:35.152Z,0.75
2022-07-25T22:47:00.969Z,0.80
2022-07-25T22:49:26.789Z,1.02
2022-07-25T22:51:53.131Z,1.15
2022-07-25T22:54:18.940Z,0.85
2022-07-25T22:56:44.768Z,1.10
2022-07-25T22:59:10.905Z,0.98
2022-07-25T23:01:37.007Z,1.10
2022-07-25T23:04:02.931Z,0.80
2022-07-25T23:06:28.907Z,0.88
2022-07-25T23:08:56.107Z,0.85
2022-07-25T23:11:22.088Z,0.98
2022-07-25T23:13:47.968Z,0.80
2022-07-25T23:16:13.907Z,0.60
2022-07-25T23:18:39.779Z,0.60
2022-07-25T23:21:05.977Z,0.70
2022-07-25T23:23:31.918Z,0.80
2022-07-25T23:25:57.746Z,0.63
2022-07-25T23:28:23.561Z,0.90
2022-07-25T23:30:49.400Z,1.20
2022-07-25T23:33:15.266Z,0.80
2022-07-25T23:35:41.536Z,1.00
2022-07-25T23:38:07.473Z,0.75
2022-07-25T23:40:33.512Z,1.40
2022-07-25T23:42:59.445Z,0.80
2022-07-25T23:45:28.098Z,0.93
2022-07-25T23:47:55.433Z,0.90
2022-07-25T23:50:22.213Z,0.82
2022-07-25T23:52:48.084Z,0.70
2022-07-25T23:55:13.876Z,0.88
2022-07-25T23:57:39.907Z,0.73
